Algona, Iowa
Current Conditions -  °F | °C
As of 4:15 AM on Thursday 29 Jan 2015 (Local Time) from KAXA Reporting Station
Overcast Overcast  
Wind Chill: 22°   Ceiling: 1200
Heat Index: 34°   Visibility: 10mi
Dew Point: 32°   Wind: 20mph
Humidity: 93%   Direction: 330°NNW
Pressure: 30"   Gusts: 35mph
Location:  43.07°N, 94.23°W
Report Text: KAXA 291015Z AUTO 33017G30KT 10SM OVC012 01/00 A3000 RMK AO2
Loading
Personal Weather Stations






























Interactive Weather Map New forecast layout! Learn more

10-Day Weather Forecast

Advertisements
Track Severe Weather on mobile